sensor_id;sensor_type;location;lat;lon;timestamp;P1;durP1;ratioP1;P2;durP2;ratioP2
60243;SDS011;46106;51.468;5.814;2023-08-30T00:01:15;13.52;;;9.07;;
60243;SDS011;46106;51.468;5.814;2023-08-30T00:03:41;17.50;;;9.43;;
60243;SDS011;46106;51.468;5.814;2023-08-30T00:06:06;14.98;;;9.43;;
60243;SDS011;46106;51.468;5.814;2023-08-30T00:08:32;18.48;;;9.65;;
60243;SDS011;46106;51.468;5.814;2023-08-30T00:10:58;18.92;;;9.43;;
60243;SDS011;46106;51.468;5.814;2023-08-30T00:13:24;14.80;;;9.70;;
60243;SDS011;46106;51.468;5.814;2023-08-30T00:15:50;16.85;;;9.80;;
60243;SDS011;46106;51.468;5.814;2023-08-30T00:18:16;15.68;;;10.15;;
60243;SDS011;46106;51.468;5.814;2023-08-30T00:20:43;16.90;;;10.40;;
60243;SDS011;46106;51.468;5.814;2023-08-30T00:23:09;17.02;;;10.52;;
60243;SDS011;46106;51.468;5.814;2023-08-30T00:25:35;16.02;;;9.48;;
60243;SDS011;46106;51.468;5.814;2023-08-30T00:28:00;19.40;;;10.25;;
60243;SDS011;46106;51.468;5.814;2023-08-30T00:30:25;20.00;;;9.60;;
60243;SDS011;46106;51.468;5.814;2023-08-30T00:32:51;18.05;;;9.80;;
60243;SDS011;46106;51.468;5.814;2023-08-30T00:35:16;18.95;;;10.85;;
60243;SDS011;46106;51.468;5.814;2023-08-30T00:37:42;17.92;;;11.80;;
60243;SDS011;46106;51.468;5.814;2023-08-30T00:40:07;17.23;;;10.38;;
60243;SDS011;46106;51.468;5.814;2023-08-30T00:42:33;16.90;;;10.55;;
60243;SDS011;46106;51.468;5.814;2023-08-30T00:45:00;20.23;;;11.13;;
60243;SDS011;46106;51.468;5.814;2023-08-30T00:47:25;14.93;;;10.43;;
60243;SDS011;46106;51.468;5.814;2023-08-30T00:49:52;18.73;;;11.85;;
60243;SDS011;46106;51.468;5.814;2023-08-30T00:52:17;24.27;;;11.77;;
60243;SDS011;46106;51.468;5.814;2023-08-30T00:54:43;20.23;;;11.43;;
60243;SDS011;46106;51.468;5.814;2023-08-30T00:57:09;20.23;;;11.15;;
60243;SDS011;46106;51.468;5.814;2023-08-30T00:59:34;24.45;;;12.57;;
60243;SDS011;46106;51.468;5.814;2023-08-30T01:02:00;23.77;;;12.15;;
60243;SDS011;46106;51.468;5.814;2023-08-30T01:04:27;17.58;;;11.95;;
60243;SDS011;46106;51.468;5.814;2023-08-30T01:06:53;25.40;;;11.90;;
60243;SDS011;46106;51.468;5.814;2023-08-30T01:09:18;15.73;;;10.75;;
60243;SDS011;46106;51.468;5.814;2023-08-30T01:11:50;19.45;;;11.55;;
60243;SDS011;46106;51.468;5.814;2023-08-30T01:14:20;18.83;;;12.07;;
60243;SDS011;46106;51.468;5.814;2023-08-30T01:22:16;31.83;;;13.82;;
60243;SDS011;46106;51.468;5.814;2023-08-30T01:24:52;25.25;;;14.48;;
60243;SDS011;46106;51.468;5.814;2023-08-30T01:27:25;23.73;;;14.88;;
60243;SDS011;46106;51.468;5.814;2023-08-30T01:29:53;19.58;;;13.80;;
60243;SDS011;46106;51.468;5.814;2023-08-30T01:32:20;20.83;;;12.25;;
60243;SDS011;46106;51.468;5.814;2023-08-30T01:34:50;19.23;;;12.40;;
60243;SDS011;46106;51.468;5.814;2023-08-30T01:37:17;23.55;;;13.68;;
60243;SDS011;46106;51.468;5.814;2023-08-30T01:39:43;21.67;;;12.95;;
60243;SDS011;46106;51.468;5.814;2023-08-30T01:42:10;17.50;;;11.90;;
60243;SDS011;46106;51.468;5.814;2023-08-30T01:44:39;14.25;;;11.23;;
60243;SDS011;46106;51.468;5.814;2023-08-30T01:47:09;21.70;;;11.88;;
60243;SDS011;46106;51.468;5.814;2023-08-30T01:49:36;17.02;;;12.05;;
60243;SDS011;46106;51.468;5.814;2023-08-30T01:52:02;19.77;;;11.40;;
60243;SDS011;46106;51.468;5.814;2023-08-30T01:54:28;23.73;;;11.93;;
60243;SDS011;46106;51.468;5.814;2023-08-30T01:56:55;17.73;;;11.68;;
60243;SDS011;46106;51.468;5.814;2023-08-30T01:59:22;20.55;;;11.35;;
60243;SDS011;46106;51.468;5.814;2023-08-30T02:01:48;17.42;;;11.63;;
60243;SDS011;46106;51.468;5.814;2023-08-30T02:04:14;18.70;;;12.82;;
60243;SDS011;46106;51.468;5.814;2023-08-30T02:06:42;19.40;;;12.63;;
60243;SDS011;46106;51.468;5.814;2023-08-30T02:09:48;18.42;;;12.25;;
60243;SDS011;46106;51.468;5.814;2023-08-30T02:12:13;22.17;;;13.13;;
60243;SDS011;46106;51.468;5.814;2023-08-30T02:14:46;21.67;;;13.32;;
60243;SDS011;46106;51.468;5.814;2023-08-30T02:17:13;27.27;;;14.38;;
60243;SDS011;46106;51.468;5.814;2023-08-30T02:19:40;27.13;;;13.77;;
60243;SDS011;46106;51.468;5.814;2023-08-30T02:22:08;21.75;;;14.05;;
60243;SDS011;46106;51.468;5.814;2023-08-30T02:24:33;24.75;;;14.65;;
60243;SDS011;46106;51.468;5.814;2023-08-30T02:26:59;23.58;;;14.43;;
60243;SDS011;46106;51.468;5.814;2023-08-30T02:29:24;24.55;;;15.07;;
60243;SDS011;46106;51.468;5.814;2023-08-30T02:31:50;28.90;;;14.40;;
60243;SDS011;46106;51.468;5.814;2023-08-30T02:34:15;21.85;;;14.35;;
60243;SDS011;46106;51.468;5.814;2023-08-30T02:36:41;23.00;;;14.82;;
60243;SDS011;46106;51.468;5.814;2023-08-30T02:39:07;29.77;;;14.65;;
60243;SDS011;46106;51.468;5.814;2023-08-30T02:41:33;26.65;;;15.13;;
60243;SDS011;46106;51.468;5.814;2023-08-30T02:43:59;27.05;;;15.65;;
60243;SDS011;46106;51.468;5.814;2023-08-30T02:46:24;21.75;;;14.98;;
60243;SDS011;46106;51.468;5.814;2023-08-30T02:48:50;25.48;;;16.05;;
60243;SDS011;46106;51.468;5.814;2023-08-30T02:51:15;24.38;;;15.40;;
60243;SDS011;46106;51.468;5.814;2023-08-30T02:53:42;23.55;;;15.25;;
60243;SDS011;46106;51.468;5.814;2023-08-30T02:56:07;25.02;;;15.77;;
60243;SDS011;46106;51.468;5.814;2023-08-30T02:58:32;27.58;;;16.27;;
60243;SDS011;46106;51.468;5.814;2023-08-30T03:00:59;25.65;;;14.95;;
60243;SDS011;46106;51.468;5.814;2023-08-30T03:03:25;23.27;;;15.40;;
60243;SDS011;46106;51.468;5.814;2023-08-30T03:05:50;21.60;;;14.40;;
60243;SDS011;46106;51.468;5.814;2023-08-30T03:08:16;27.45;;;14.80;;
60243;SDS011;46106;51.468;5.814;2023-08-30T03:10:41;25.92;;;16.35;;
60243;SDS011;46106;51.468;5.814;2023-08-30T03:13:06;23.38;;;14.70;;
60243;SDS011;46106;51.468;5.814;2023-08-30T03:15:32;23.30;;;14.82;;
60243;SDS011;46106;51.468;5.814;2023-08-30T03:17:59;35.83;;;14.85;;
60243;SDS011;46106;51.468;5.814;2023-08-30T03:20:26;27.23;;;14.43;;
60243;SDS011;46106;51.468;5.814;2023-08-30T03:22:56;25.27;;;15.35;;
60243;SDS011;46106;51.468;5.814;2023-08-30T03:25:23;21.10;;;13.18;;
60243;SDS011;46106;51.468;5.814;2023-08-30T03:27:48;19.88;;;13.88;;
60243;SDS011;46106;51.468;5.814;2023-08-30T03:30:14;26.55;;;14.63;;
60243;SDS011;46106;51.468;5.814;2023-08-30T03:32:39;24.73;;;14.25;;
60243;SDS011;46106;51.468;5.814;2023-08-30T03:35:05;28.38;;;13.95;;
60243;SDS011;46106;51.468;5.814;2023-08-30T03:37:31;26.33;;;14.20;;
60243;SDS011;46106;51.468;5.814;2023-08-30T03:39:56;25.00;;;14.10;;
60243;SDS011;46106;51.468;5.814;2023-08-30T03:42:21;22.70;;;14.27;;
60243;SDS011;46106;51.468;5.814;2023-08-30T03:44:47;22.60;;;15.40;;
60243;SDS011;46106;51.468;5.814;2023-08-30T03:47:12;24.55;;;15.75;;
60243;SDS011;46106;51.468;5.814;2023-08-30T03:49:38;30.25;;;16.27;;
60243;SDS011;46106;51.468;5.814;2023-08-30T03:52:03;28.08;;;15.80;;
60243;SDS011;46106;51.468;5.814;2023-08-30T03:54:29;31.08;;;15.80;;
60243;SDS011;46106;51.468;5.814;2023-08-30T03:56:54;27.73;;;16.88;;
60243;SDS011;46106;51.468;5.814;2023-08-30T03:59:20;27.88;;;16.48;;
60243;SDS011;46106;51.468;5.814;2023-08-30T04:01:47;29.80;;;18.38;;
60243;SDS011;46106;51.468;5.814;2023-08-30T04:04:13;37.85;;;17.70;;
60243;SDS011;46106;51.468;5.814;2023-08-30T04:06:39;26.42;;;17.48;;
60243;SDS011;46106;51.468;5.814;2023-08-30T04:09:05;28.65;;;17.65;;
60243;SDS011;46106;51.468;5.814;2023-08-30T04:11:30;35.85;;;19.17;;
60243;SDS011;46106;51.468;5.814;2023-08-30T04:13:56;27.92;;;18.30;;
60243;SDS011;46106;51.468;5.814;2023-08-30T04:16:21;33.00;;;18.55;;
60243;SDS011;46106;51.468;5.814;2023-08-30T04:18:46;31.17;;;19.63;;
60243;SDS011;46106;51.468;5.814;2023-08-30T04:21:12;65.63;;;22.77;;
60243;SDS011;46106;51.468;5.814;2023-08-30T04:23:37;35.03;;;19.55;;
60243;SDS011;46106;51.468;5.814;2023-08-30T04:26:03;38.40;;;20.13;;
60243;SDS011;46106;51.468;5.814;2023-08-30T04:28:28;35.15;;;19.95;;
60243;SDS011;46106;51.468;5.814;2023-08-30T04:30:54;30.38;;;20.25;;
60243;SDS011;46106;51.468;5.814;2023-08-30T04:33:20;30.17;;;19.10;;
60243;SDS011;46106;51.468;5.814;2023-08-30T04:35:50;31.30;;;20.10;;
60243;SDS011;46106;51.468;5.814;2023-08-30T04:38:19;35.03;;;19.83;;
60243;SDS011;46106;51.468;5.814;2023-08-30T04:40:46;35.50;;;19.77;;
60243;SDS011;46106;51.468;5.814;2023-08-30T04:43:13;35.17;;;19.63;;
60243;SDS011;46106;51.468;5.814;2023-08-30T04:45:38;36.38;;;20.40;;
60243;SDS011;46106;51.468;5.814;2023-08-30T04:48:04;34.17;;;21.05;;
60243;SDS011;46106;51.468;5.814;2023-08-30T04:50:30;38.42;;;20.30;;
60243;SDS011;46106;51.468;5.814;2023-08-30T04:52:56;36.65;;;20.98;;
60243;SDS011;46106;51.468;5.814;2023-08-30T04:55:28;37.92;;;20.10;;
60243;SDS011;46106;51.468;5.814;2023-08-30T04:57:53;35.13;;;21.80;;
60243;SDS011;46106;51.468;5.814;2023-08-30T05:00:19;33.35;;;20.23;;
60243;SDS011;46106;51.468;5.814;2023-08-30T05:02:44;38.25;;;20.83;;
60243;SDS011;46106;51.468;5.814;2023-08-30T05:05:11;39.45;;;21.00;;
60243;SDS011;46106;51.468;5.814;2023-08-30T05:07:37;33.90;;;20.60;;
60243;SDS011;46106;51.468;5.814;2023-08-30T05:10:03;43.83;;;21.83;;
60243;SDS011;46106;51.468;5.814;2023-08-30T05:12:29;35.65;;;20.85;;
60243;SDS011;46106;51.468;5.814;2023-08-30T05:14:54;37.83;;;21.08;;
60243;SDS011;46106;51.468;5.814;2023-08-30T05:17:20;35.28;;;20.80;;
60243;SDS011;46106;51.468;5.814;2023-08-30T05:19:45;46.17;;;21.63;;
60243;SDS011;46106;51.468;5.814;2023-08-30T05:22:11;29.88;;;21.02;;
60243;SDS011;46106;51.468;5.814;2023-08-30T05:24:36;40.25;;;21.20;;
60243;SDS011;46106;51.468;5.814;2023-08-30T05:27:03;46.45;;;22.83;;
60243;SDS011;46106;51.468;5.814;2023-08-30T05:29:28;35.58;;;20.83;;
60243;SDS011;46106;51.468;5.814;2023-08-30T05:31:54;33.10;;;19.38;;
60243;SDS011;46106;51.468;5.814;2023-08-30T05:34:19;35.33;;;20.48;;
60243;SDS011;46106;51.468;5.814;2023-08-30T05:36:45;34.53;;;20.25;;
60243;SDS011;46106;51.468;5.814;2023-08-30T05:39:10;32.25;;;20.50;;
60243;SDS011;46106;51.468;5.814;2023-08-30T05:41:35;42.72;;;22.60;;
60243;SDS011;46106;51.468;5.814;2023-08-30T05:44:01;36.58;;;21.80;;
60243;SDS011;46106;51.468;5.814;2023-08-30T05:46:27;33.10;;;21.35;;
60243;SDS011;46106;51.468;5.814;2023-08-30T05:48:53;37.40;;;22.60;;
60243;SDS011;46106;51.468;5.814;2023-08-30T05:51:19;37.25;;;21.52;;
60243;SDS011;46106;51.468;5.814;2023-08-30T05:53:45;36.10;;;20.23;;
60243;SDS011;46106;51.468;5.814;2023-08-30T05:56:10;37.63;;;21.95;;
60243;SDS011;46106;51.468;5.814;2023-08-30T05:58:36;39.65;;;22.10;;
60243;SDS011;46106;51.468;5.814;2023-08-30T06:01:02;40.42;;;22.48;;
60243;SDS011;46106;51.468;5.814;2023-08-30T06:03:28;40.60;;;23.40;;
60243;SDS011;46106;51.468;5.814;2023-08-30T06:05:54;39.03;;;22.63;;
60243;SDS011;46106;51.468;5.814;2023-08-30T06:08:20;45.00;;;23.20;;
60243;SDS011;46106;51.468;5.814;2023-08-30T06:10:46;37.47;;;22.27;;
60243;SDS011;46106;51.468;5.814;2023-08-30T06:13:11;39.90;;;22.83;;
60243;SDS011;46106;51.468;5.814;2023-08-30T06:15:36;39.00;;;23.88;;
60243;SDS011;46106;51.468;5.814;2023-08-30T06:18:04;40.67;;;23.00;;
60243;SDS011;46106;51.468;5.814;2023-08-30T06:20:39;47.13;;;24.25;;
60243;SDS011;46106;51.468;5.814;2023-08-30T06:23:06;41.78;;;23.17;;
60243;SDS011;46106;51.468;5.814;2023-08-30T06:25:32;39.03;;;23.75;;
60243;SDS011;46106;51.468;5.814;2023-08-30T06:27:58;41.47;;;23.92;;
60243;SDS011;46106;51.468;5.814;2023-08-30T06:30:25;40.72;;;23.20;;
60243;SDS011;46106;51.468;5.814;2023-08-30T06:32:51;39.53;;;22.42;;
60243;SDS011;46106;51.468;5.814;2023-08-30T06:35:16;46.28;;;23.25;;
60243;SDS011;46106;51.468;5.814;2023-08-30T06:37:41;40.28;;;23.02;;
60243;SDS011;46106;51.468;5.814;2023-08-30T06:40:07;37.00;;;22.85;;
60243;SDS011;46106;51.468;5.814;2023-08-30T06:42:33;34.85;;;21.83;;
60243;SDS011;46106;51.468;5.814;2023-08-30T06:44:59;39.28;;;23.15;;
60243;SDS011;46106;51.468;5.814;2023-08-30T06:47:24;43.25;;;22.35;;
60243;SDS011;46106;51.468;5.814;2023-08-30T06:49:50;36.50;;;21.92;;
60243;SDS011;46106;51.468;5.814;2023-08-30T06:52:17;36.85;;;22.58;;
60243;SDS011;46106;51.468;5.814;2023-08-30T06:54:42;36.55;;;22.55;;
60243;SDS011;46106;51.468;5.814;2023-08-30T06:57:07;36.22;;;22.30;;
60243;SDS011;46106;51.468;5.814;2023-08-30T06:59:35;37.45;;;21.70;;
60243;SDS011;46106;51.468;5.814;2023-08-30T07:02:00;43.95;;;22.42;;
60243;SDS011;46106;51.468;5.814;2023-08-30T07:04:26;38.75;;;21.70;;
60243;SDS011;46106;51.468;5.814;2023-08-30T07:06:51;39.97;;;20.08;;
60243;SDS011;46106;51.468;5.814;2023-08-30T07:09:17;32.22;;;20.13;;
60243;SDS011;46106;51.468;5.814;2023-08-30T07:11:45;34.42;;;20.02;;
60243;SDS011;46106;51.468;5.814;2023-08-30T07:14:11;31.67;;;18.45;;
60243;SDS011;46106;51.468;5.814;2023-08-30T07:16:37;27.10;;;18.45;;
60243;SDS011;46106;51.468;5.814;2023-08-30T07:19:03;28.33;;;17.98;;
60243;SDS011;46106;51.468;5.814;2023-08-30T07:21:28;30.48;;;19.17;;
60243;SDS011;46106;51.468;5.814;2023-08-30T07:23:54;31.40;;;19.27;;
60243;SDS011;46106;51.468;5.814;2023-08-30T07:26:19;35.08;;;19.58;;
60243;SDS011;46106;51.468;5.814;2023-08-30T07:28:45;27.63;;;18.52;;
60243;SDS011;46106;51.468;5.814;2023-08-30T07:31:11;37.08;;;19.45;;
60243;SDS011;46106;51.468;5.814;2023-08-30T07:33:43;34.42;;;18.77;;
60243;SDS011;46106;51.468;5.814;2023-08-30T07:36:09;26.58;;;16.83;;
60243;SDS011;46106;51.468;5.814;2023-08-30T07:38:34;30.33;;;18.48;;
60243;SDS011;46106;51.468;5.814;2023-08-30T07:41:00;30.92;;;18.23;;
60243;SDS011;46106;51.468;5.814;2023-08-30T07:43:26;29.95;;;19.70;;
60243;SDS011;46106;51.468;5.814;2023-08-30T07:45:51;38.75;;;20.08;;
60243;SDS011;46106;51.468;5.814;2023-08-30T07:48:17;34.53;;;20.25;;
60243;SDS011;46106;51.468;5.814;2023-08-30T07:50:43;37.53;;;19.38;;
60243;SDS011;46106;51.468;5.814;2023-08-30T07:53:08;45.20;;;20.50;;
60243;SDS011;46106;51.468;5.814;2023-08-30T07:55:35;32.25;;;18.38;;
60243;SDS011;46106;51.468;5.814;2023-08-30T07:58:01;28.80;;;16.40;;
60243;SDS011;46106;51.468;5.814;2023-08-30T08:00:28;34.55;;;17.33;;
60243;SDS011;46106;51.468;5.814;2023-08-30T08:02:53;26.75;;;16.42;;
60243;SDS011;46106;51.468;5.814;2023-08-30T08:05:19;26.10;;;15.95;;
60243;SDS011;46106;51.468;5.814;2023-08-30T08:07:44;27.63;;;14.80;;
60243;SDS011;46106;51.468;5.814;2023-08-30T08:10:10;28.13;;;16.27;;
60243;SDS011;46106;51.468;5.814;2023-08-30T08:12:35;26.90;;;15.55;;
60243;SDS011;46106;51.468;5.814;2023-08-30T08:15:01;28.60;;;16.65;;
60243;SDS011;46106;51.468;5.814;2023-08-30T08:17:27;28.85;;;15.65;;
60243;SDS011;46106;51.468;5.814;2023-08-30T08:19:52;24.27;;;13.90;;
60243;SDS011;46106;51.468;5.814;2023-08-30T08:22:17;22.88;;;12.88;;
60243;SDS011;46106;51.468;5.814;2023-08-30T08:24:43;23.75;;;11.85;;
60243;SDS011;46106;51.468;5.814;2023-08-30T08:27:11;21.65;;;11.05;;
60243;SDS011;46106;51.468;5.814;2023-08-30T08:29:37;25.10;;;11.70;;
60243;SDS011;46106;51.468;5.814;2023-08-30T08:32:03;20.48;;;9.63;;
60243;SDS011;46106;51.468;5.814;2023-08-30T08:34:29;17.35;;;10.10;;
60243;SDS011;46106;51.468;5.814;2023-08-30T08:36:54;25.13;;;11.32;;
60243;SDS011;46106;51.468;5.814;2023-08-30T08:39:20;18.75;;;10.20;;
60243;SDS011;46106;51.468;5.814;2023-08-30T08:41:45;17.73;;;9.00;;
60243;SDS011;46106;51.468;5.814;2023-08-30T08:44:11;15.23;;;8.63;;
60243;SDS011;46106;51.468;5.814;2023-08-30T08:46:38;16.33;;;8.05;;
60243;SDS011;46106;51.468;5.814;2023-08-30T08:49:08;17.15;;;9.15;;
60243;SDS011;46106;51.468;5.814;2023-08-30T08:51:37;17.67;;;8.57;;
60243;SDS011;46106;51.468;5.814;2023-08-30T08:54:03;14.35;;;8.23;;
60243;SDS011;46106;51.468;5.814;2023-08-30T08:56:32;19.30;;;10.85;;
60243;SDS011;46106;51.468;5.814;2023-08-30T08:59:01;14.05;;;8.75;;
60243;SDS011;46106;51.468;5.814;2023-08-30T09:01:27;16.75;;;9.27;;
60243;SDS011;46106;51.468;5.814;2023-08-30T09:03:54;16.95;;;9.25;;
60243;SDS011;46106;51.468;5.814;2023-08-30T09:06:19;17.63;;;9.52;;
60243;SDS011;46106;51.468;5.814;2023-08-30T09:08:46;19.55;;;8.88;;
60243;SDS011;46106;51.468;5.814;2023-08-30T09:11:12;17.33;;;8.85;;
60243;SDS011;46106;51.468;5.814;2023-08-30T09:13:38;19.13;;;8.80;;
60243;SDS011;46106;51.468;5.814;2023-08-30T09:16:11;19.75;;;10.00;;
60243;SDS011;46106;51.468;5.814;2023-08-30T09:18:37;16.13;;;9.75;;
60243;SDS011;46106;51.468;5.814;2023-08-30T09:21:06;19.88;;;10.27;;
60243;SDS011;46106;51.468;5.814;2023-08-30T09:23:36;15.23;;;9.40;;
60243;SDS011;46106;51.468;5.814;2023-08-30T09:26:02;22.40;;;9.77;;
60243;SDS011;46106;51.468;5.814;2023-08-30T09:28:28;16.25;;;9.30;;
60243;SDS011;46106;51.468;5.814;2023-08-30T09:30:56;13.82;;;9.50;;
60243;SDS011;46106;51.468;5.814;2023-08-30T09:33:23;15.55;;;9.60;;
60243;SDS011;46106;51.468;5.814;2023-08-30T09:35:54;19.05;;;8.85;;
60243;SDS011;46106;51.468;5.814;2023-08-30T09:38:20;13.43;;;8.68;;
60243;SDS011;46106;51.468;5.814;2023-08-30T09:40:45;13.68;;;8.13;;
60243;SDS011;46106;51.468;5.814;2023-08-30T09:43:11;15.00;;;9.25;;
60243;SDS011;46106;51.468;5.814;2023-08-30T09:45:39;11.45;;;7.35;;
60243;SDS011;46106;51.468;5.814;2023-08-30T09:48:05;17.23;;;9.35;;
60243;SDS011;46106;51.468;5.814;2023-08-30T09:50:34;19.73;;;8.82;;
60243;SDS011;46106;51.468;5.814;2023-08-30T09:53:07;13.25;;;9.05;;
60243;SDS011;46106;51.468;5.814;2023-08-30T09:55:34;13.82;;;8.52;;
60243;SDS011;46106;51.468;5.814;2023-08-30T09:58:03;19.27;;;8.05;;
60243;SDS011;46106;51.468;5.814;2023-08-30T10:00:29;15.00;;;9.13;;
60243;SDS011;46106;51.468;5.814;2023-08-30T10:03:01;17.38;;;9.95;;
60243;SDS011;46106;51.468;5.814;2023-08-30T10:05:27;13.50;;;8.80;;
60243;SDS011;46106;51.468;5.814;2023-08-30T10:07:54;11.80;;;8.50;;
60243;SDS011;46106;51.468;5.814;2023-08-30T10:10:20;17.83;;;9.35;;
60243;SDS011;46106;51.468;5.814;2023-08-30T10:12:47;15.65;;;8.85;;
60243;SDS011;46106;51.468;5.814;2023-08-30T10:15:14;15.20;;;8.10;;
60243;SDS011;46106;51.468;5.814;2023-08-30T10:17:41;12.18;;;7.85;;
60243;SDS011;46106;51.468;5.814;2023-08-30T10:20:08;12.77;;;8.82;;
60243;SDS011;46106;51.468;5.814;2023-08-30T10:22:35;11.52;;;7.82;;
60243;SDS011;46106;51.468;5.814;2023-08-30T10:25:05;12.80;;;8.00;;
60243;SDS011;46106;51.468;5.814;2023-08-30T10:27:34;17.50;;;8.02;;
60243;SDS011;46106;51.468;5.814;2023-08-30T10:30:04;11.95;;;7.68;;
60243;SDS011;46106;51.468;5.814;2023-08-30T10:32:31;11.68;;;7.00;;
60243;SDS011;46106;51.468;5.814;2023-08-30T10:35:00;9.13;;;7.22;;
60243;SDS011;46106;51.468;5.814;2023-08-30T10:37:26;15.93;;;7.38;;
60243;SDS011;46106;51.468;5.814;2023-08-30T10:39:52;8.98;;;7.38;;
60243;SDS011;46106;51.468;5.814;2023-08-30T10:42:23;9.68;;;7.20;;
60243;SDS011;46106;51.468;5.814;2023-08-30T10:44:49;12.80;;;7.65;;
60243;SDS011;46106;51.468;5.814;2023-08-30T10:47:19;8.75;;;6.95;;
60243;SDS011;46106;51.468;5.814;2023-08-30T10:49:47;8.98;;;6.55;;
60243;SDS011;46106;51.468;5.814;2023-08-30T10:52:14;7.45;;;6.32;;
60243;SDS011;46106;51.468;5.814;2023-08-30T10:54:41;9.18;;;6.82;;
60243;SDS011;46106;51.468;5.814;2023-08-30T10:57:12;9.45;;;7.13;;
60243;SDS011;46106;51.468;5.814;2023-08-30T10:59:47;9.35;;;7.05;;
60243;SDS011;46106;51.468;5.814;2023-08-30T11:02:29;12.45;;;7.28;;
60243;SDS011;46106;51.468;5.814;2023-08-30T11:04:55;11.40;;;6.88;;
60243;SDS011;46106;51.468;5.814;2023-08-30T11:07:22;12.55;;;7.72;;
60243;SDS011;46106;51.468;5.814;2023-08-30T11:09:52;10.38;;;7.15;;
60243;SDS011;46106;51.468;5.814;2023-08-30T11:12:18;9.75;;;7.70;;
60243;SDS011;46106;51.468;5.814;2023-08-30T11:14:47;10.32;;;7.82;;
60243;SDS011;46106;51.468;5.814;2023-08-30T11:17:13;12.07;;;8.07;;
60243;SDS011;46106;51.468;5.814;2023-08-30T11:19:41;11.63;;;8.90;;
60243;SDS011;46106;51.468;5.814;2023-08-30T11:22:07;10.80;;;8.38;;
60243;SDS011;46106;51.468;5.814;2023-08-30T11:24:34;13.80;;;8.45;;
60243;SDS011;46106;51.468;5.814;2023-08-30T11:26:59;11.30;;;8.10;;
60243;SDS011;46106;51.468;5.814;2023-08-30T11:29:26;11.65;;;8.32;;
60243;SDS011;46106;51.468;5.814;2023-08-30T11:31:52;11.93;;;8.20;;
60243;SDS011;46106;51.468;5.814;2023-08-30T11:34:19;12.38;;;7.63;;
60243;SDS011;46106;51.468;5.814;2023-08-30T11:36:46;11.07;;;7.68;;
60243;SDS011;46106;51.468;5.814;2023-08-30T11:39:12;11.50;;;7.63;;
60243;SDS011;46106;51.468;5.814;2023-08-30T11:41:38;10.68;;;8.00;;
60243;SDS011;46106;51.468;5.814;2023-08-30T11:44:04;11.27;;;8.57;;
60243;SDS011;46106;51.468;5.814;2023-08-30T11:46:30;9.35;;;7.25;;
60243;SDS011;46106;51.468;5.814;2023-08-30T11:48:57;14.05;;;8.15;;
60243;SDS011;46106;51.468;5.814;2023-08-30T11:51:22;10.18;;;8.07;;
60243;SDS011;46106;51.468;5.814;2023-08-30T11:53:48;14.18;;;8.18;;
60243;SDS011;46106;51.468;5.814;2023-08-30T11:56:14;10.32;;;7.03;;
60243;SDS011;46106;51.468;5.814;2023-08-30T11:58:41;11.63;;;7.70;;
60243;SDS011;46106;51.468;5.814;2023-08-30T12:01:08;9.38;;;7.55;;
60243;SDS011;46106;51.468;5.814;2023-08-30T12:03:34;10.65;;;8.20;;
60243;SDS011;46106;51.468;5.814;2023-08-30T12:06:00;13.43;;;8.65;;
60243;SDS011;46106;51.468;5.814;2023-08-30T12:08:30;8.32;;;6.97;;
60243;SDS011;46106;51.468;5.814;2023-08-30T12:10:56;12.00;;;7.38;;
60243;SDS011;46106;51.468;5.814;2023-08-30T12:13:26;9.55;;;7.25;;
60243;SDS011;46106;51.468;5.814;2023-08-30T12:15:53;10.40;;;7.60;;
60243;SDS011;46106;51.468;5.814;2023-08-30T12:18:20;11.32;;;8.38;;
60243;SDS011;46106;51.468;5.814;2023-08-30T12:20:51;10.88;;;7.80;;
60243;SDS011;46106;51.468;5.814;2023-08-30T12:23:24;10.18;;;7.35;;
60243;SDS011;46106;51.468;5.814;2023-08-30T12:28:22;10.37;;;8.30;;
60243;SDS011;46106;51.468;5.814;2023-08-30T12:30:48;13.35;;;8.50;;
60243;SDS011;46106;51.468;5.814;2023-08-30T12:33:16;14.52;;;9.43;;
60243;SDS011;46106;51.468;5.814;2023-08-30T12:35:41;14.45;;;8.40;;
60243;SDS011;46106;51.468;5.814;2023-08-30T12:38:07;11.75;;;7.57;;
60243;SDS011;46106;51.468;5.814;2023-08-30T12:40:32;10.85;;;7.22;;
60243;SDS011;46106;51.468;5.814;2023-08-30T12:42:57;10.38;;;6.80;;
60243;SDS011;46106;51.468;5.814;2023-08-30T12:45:23;11.25;;;5.55;;
60243;SDS011;46106;51.468;5.814;2023-08-30T12:47:48;10.50;;;4.93;;
60243;SDS011;46106;51.468;5.814;2023-08-30T12:50:13;8.77;;;4.82;;
60243;SDS011;46106;51.468;5.814;2023-08-30T12:52:40;9.05;;;5.28;;
60243;SDS011;46106;51.468;5.814;2023-08-30T12:55:06;12.23;;;5.18;;
60243;SDS011;46106;51.468;5.814;2023-08-30T12:57:32;9.85;;;4.97;;
60243;SDS011;46106;51.468;5.814;2023-08-30T12:59:57;9.50;;;5.80;;
60243;SDS011;46106;51.468;5.814;2023-08-30T13:02:23;11.93;;;5.25;;
60243;SDS011;46106;51.468;5.814;2023-08-30T13:04:48;16.65;;;5.70;;
60243;SDS011;46106;51.468;5.814;2023-08-30T13:07:13;11.98;;;5.28;;
60243;SDS011;46106;51.468;5.814;2023-08-30T13:09:39;8.35;;;4.03;;
60243;SDS011;46106;51.468;5.814;2023-08-30T13:12:04;11.35;;;3.88;;
60243;SDS011;46106;51.468;5.814;2023-08-30T13:14:30;15.32;;;3.85;;
60243;SDS011;46106;51.468;5.814;2023-08-30T13:16:55;16.95;;;3.22;;
60243;SDS011;46106;51.468;5.814;2023-08-30T13:19:21;13.80;;;3.17;;
60243;SDS011;46106;51.468;5.814;2023-08-30T13:21:46;7.97;;;3.38;;
60243;SDS011;46106;51.468;5.814;2023-08-30T13:24:12;11.60;;;3.20;;
60243;SDS011;46106;51.468;5.814;2023-08-30T13:26:37;20.33;;;3.83;;
60243;SDS011;46106;51.468;5.814;2023-08-30T13:29:02;9.60;;;3.03;;
60243;SDS011;46106;51.468;5.814;2023-08-30T13:31:28;19.70;;;3.72;;
60243;SDS011;46106;51.468;5.814;2023-08-30T13:33:53;17.80;;;3.50;;
60243;SDS011;46106;51.468;5.814;2023-08-30T13:36:19;12.80;;;3.58;;
60243;SDS011;46106;51.468;5.814;2023-08-30T13:38:44;11.55;;;3.00;;
60243;SDS011;46106;51.468;5.814;2023-08-30T13:41:10;11.68;;;2.42;;
60243;SDS011;46106;51.468;5.814;2023-08-30T13:43:35;20.35;;;2.85;;
60243;SDS011;46106;51.468;5.814;2023-08-30T13:46:00;23.17;;;3.28;;
60243;SDS011;46106;51.468;5.814;2023-08-30T13:48:26;13.35;;;2.33;;
60243;SDS011;46106;51.468;5.814;2023-08-30T13:50:51;8.07;;;2.10;;
60243;SDS011;46106;51.468;5.814;2023-08-30T13:53:17;13.95;;;2.92;;
60243;SDS011;46106;51.468;5.814;2023-08-30T13:55:46;12.15;;;2.20;;
60243;SDS011;46106;51.468;5.814;2023-08-30T13:58:14;7.97;;;2.03;;
60243;SDS011;46106;51.468;5.814;2023-08-30T14:00:40;10.88;;;1.83;;
60243;SDS011;46106;51.468;5.814;2023-08-30T14:03:05;8.10;;;1.98;;
60243;SDS011;46106;51.468;5.814;2023-08-30T14:05:32;9.35;;;2.10;;
60243;SDS011;46106;51.468;5.814;2023-08-30T14:07:59;13.98;;;2.72;;
60243;SDS011;46106;51.468;5.814;2023-08-30T14:10:24;11.73;;;2.50;;
60243;SDS011;46106;51.468;5.814;2023-08-30T14:12:49;10.65;;;2.10;;
60243;SDS011;46106;51.468;5.814;2023-08-30T14:15:15;8.40;;;2.05;;
60243;SDS011;46106;51.468;5.814;2023-08-30T14:17:41;11.70;;;2.20;;
60243;SDS011;46106;51.468;5.814;2023-08-30T14:20:07;12.07;;;2.10;;
60243;SDS011;46106;51.468;5.814;2023-08-30T14:22:33;10.00;;;1.73;;
60243;SDS011;46106;51.468;5.814;2023-08-30T14:24:58;5.75;;;1.63;;
60243;SDS011;46106;51.468;5.814;2023-08-30T14:27:23;6.20;;;1.58;;
60243;SDS011;46106;51.468;5.814;2023-08-30T14:29:49;6.93;;;1.80;;
60243;SDS011;46106;51.468;5.814;2023-08-30T14:32:14;11.93;;;2.13;;